createdAt,value
2023-03-20T00:01:19.592Z,37.03
2023-03-20T00:03:52.980Z,37.67
2023-03-20T00:06:28.945Z,38.03
2023-03-20T00:09:07.305Z,36.77
2023-03-20T00:11:49.350Z,37.20
2023-03-20T00:14:24.941Z,37.00
2023-03-20T00:16:58.873Z,35.17
2023-03-20T00:19:32.404Z,38.07
2023-03-20T00:22:06.093Z,36.80
2023-03-20T00:24:39.952Z,36.27
2023-03-20T00:27:16.873Z,37.07
2023-03-20T00:29:49.680Z,35.67
2023-03-20T00:32:23.627Z,34.73
2023-03-20T00:34:56.760Z,35.90
2023-03-20T00:37:29.959Z,38.10
2023-03-20T00:40:04.606Z,35.50
2023-03-20T00:42:39.825Z,36.40
2023-03-20T00:45:18.226Z,36.83
2023-03-20T00:47:54.032Z,36.00
2023-03-20T00:50:30.970Z,36.90
2023-03-20T00:53:04.362Z,37.97
2023-03-20T00:55:38.819Z,37.30
2023-03-20T00:58:14.619Z,35.83
2023-03-20T01:00:50.115Z,36.83
2023-03-20T01:03:25.785Z,37.37
2023-03-20T01:05:59.011Z,37.50
2023-03-20T01:08:32.063Z,38.70
2023-03-20T01:11:05.301Z,38.33
2023-03-20T01:13:39.840Z,40.03
2023-03-20T01:16:23.316Z,36.63
2023-03-20T01:18:57.681Z,36.93
2023-03-20T01:21:30.749Z,35.20
2023-03-20T01:24:04.177Z,38.53
2023-03-20T01:26:40.076Z,36.27
2023-03-20T01:29:22.238Z,39.10
2023-03-20T01:31:57.380Z,38.03
2023-03-20T01:34:31.728Z,36.80
2023-03-20T01:37:11.444Z,38.63
2023-03-20T01:39:45.157Z,38.70
2023-03-20T01:42:19.621Z,37.47
2023-03-20T01:44:53.008Z,37.70
2023-03-20T01:47:28.612Z,37.57
2023-03-20T01:50:29.355Z,40.03
2023-03-20T01:53:27.384Z,40.80
2023-03-20T01:56:03.894Z,41.07
2023-03-20T01:58:48.042Z,40.73
2023-03-20T02:01:22.771Z,42.33
2023-03-20T02:03:55.981Z,43.30
2023-03-20T02:06:45.540Z,40.07
2023-03-20T02:09:57.568Z,41.57
2023-03-20T02:12:44.703Z,43.97
2023-03-20T02:15:20.214Z,42.87
2023-03-20T02:18:06.307Z,41.30
2023-03-20T02:21:04.487Z,42.90
2023-03-20T02:24:09.887Z,43.60
2023-03-20T02:26:49.285Z,42.67
2023-03-20T02:29:51.646Z,43.95
2023-03-20T02:32:53.316Z,43.90
2023-03-20T02:35:39.197Z,43.95
2023-03-20T02:38:25.908Z,42.30
2023-03-20T02:41:05.491Z,44.23
2023-03-20T02:43:45.677Z,44.97
2023-03-20T02:46:29.418Z,44.47
2023-03-20T02:49:09.605Z,46.53
2023-03-20T02:51:49.854Z,44.70
2023-03-20T02:54:30.140Z,43.90
2023-03-20T02:57:08.742Z,42.67
2023-03-20T02:59:49.851Z,42.33
2023-03-20T03:02:28.942Z,41.43
2023-03-20T03:05:05.798Z,41.47
2023-03-20T03:07:41.788Z,42.23
2023-03-20T03:10:22.760Z,40.87
2023-03-20T03:12:59.584Z,42.17
2023-03-20T03:15:36.459Z,42.70
2023-03-20T03:18:14.331Z,43.93
2023-03-20T03:20:49.627Z,46.43
2023-03-20T03:23:27.887Z,43.00
2023-03-20T03:26:04.717Z,44.20
2023-03-20T03:28:42.503Z,43.50
2023-03-20T03:31:19.245Z,42.13
2023-03-20T03:33:55.638Z,44.07
2023-03-20T03:36:41.567Z,43.27
2023-03-20T03:39:23.006Z,40.97
2023-03-20T03:42:05.263Z,44.63
2023-03-20T03:44:48.352Z,41.80
2023-03-20T03:47:27.930Z,41.47
2023-03-20T03:50:05.867Z,41.27
2023-03-20T03:52:42.980Z,41.17
2023-03-20T03:55:18.217Z,41.70
2023-03-20T03:58:06.018Z,39.80
2023-03-20T04:00:39.129Z,42.65
2023-03-20T04:03:13.884Z,40.50
2023-03-20T04:05:49.504Z,42.57
2023-03-20T04:08:22.519Z,42.70
2023-03-20T04:10:55.556Z,41.80
2023-03-20T04:13:28.501Z,41.80
2023-03-20T04:16:01.240Z,41.43
2023-03-20T04:18:35.140Z,42.45
2023-03-20T04:21:11.305Z,45.37
2023-03-20T04:23:43.688Z,40.40
2023-03-20T04:26:16.419Z,42.62
2023-03-20T04:28:49.083Z,43.07
2023-03-20T04:31:40.109Z,42.25
2023-03-20T04:34:18.222Z,41.37
2023-03-20T04:37:05.586Z,41.50
2023-03-20T04:40:00.627Z,43.73
2023-03-20T04:42:34.523Z,41.27
2023-03-20T04:45:11.190Z,41.95
2023-03-20T04:47:45.262Z,40.23
2023-03-20T04:50:18.952Z,40.73
2023-03-20T04:52:52.324Z,41.30
2023-03-20T04:55:25.467Z,40.93
2023-03-20T04:58:00.189Z,41.93
2023-03-20T05:00:35.440Z,41.30
2023-03-20T05:03:11.004Z,39.70
2023-03-20T05:05:45.835Z,39.50
2023-03-20T05:08:18.685Z,40.50
2023-03-20T05:10:52.329Z,41.27
2023-03-20T05:13:51.411Z,41.50
2023-03-20T05:16:43.105Z,40.83
2023-03-20T05:19:43.329Z,42.27
2023-03-20T05:22:20.023Z,40.93
2023-03-20T05:25:12.199Z,41.65
2023-03-20T05:27:54.386Z,42.80
2023-03-20T05:30:39.298Z,44.43
2023-03-20T05:33:31.042Z,42.20
2023-03-20T05:36:22.977Z,42.60
2023-03-20T05:39:14.595Z,39.18
2023-03-20T05:42:06.795Z,42.57
2023-03-20T05:45:16.094Z,40.87
2023-03-20T05:48:08.193Z,40.10
2023-03-20T05:50:41.395Z,42.27
2023-03-20T05:53:41.272Z,43.10
2023-03-20T05:56:40.354Z,42.10
2023-03-20T05:59:42.491Z,42.20
2023-03-20T06:02:21.614Z,43.37
2023-03-20T06:05:03.450Z,42.15
2023-03-20T06:07:41.833Z,40.90
2023-03-20T06:10:20.118Z,40.93
2023-03-20T06:12:53.310Z,41.90
2023-03-20T06:15:31.882Z,41.05
2023-03-20T06:18:11.767Z,42.90
2023-03-20T06:20:44.183Z,41.80
2023-03-20T06:23:16.935Z,43.38
2023-03-20T06:25:49.030Z,42.45
2023-03-20T06:28:22.558Z,41.05
2023-03-20T06:31:01.521Z,40.57
2023-03-20T06:33:34.290Z,41.07
2023-03-20T06:36:08.039Z,41.00
2023-03-20T06:38:40.322Z,41.30
2023-03-20T06:41:27.799Z,42.50
2023-03-20T06:44:04.726Z,39.50
2023-03-20T06:46:56.233Z,39.63
2023-03-20T06:49:29.393Z,42.37
2023-03-20T06:52:03.162Z,41.67
2023-03-20T06:54:37.181Z,40.40
2023-03-20T06:57:10.460Z,40.50
2023-03-20T06:59:43.630Z,41.87
2023-03-20T07:02:17.199Z,41.77
2023-03-20T07:04:51.016Z,42.57
2023-03-20T07:07:24.646Z,40.20
2023-03-20T07:09:58.409Z,40.67
2023-03-20T07:12:32.569Z,40.73
2023-03-20T07:15:07.188Z,38.83
2023-03-20T07:17:40.276Z,40.57
2023-03-20T07:20:15.175Z,39.07
2023-03-20T07:22:49.343Z,41.30
2023-03-20T07:25:39.671Z,40.70
2023-03-20T07:28:28.352Z,40.53
2023-03-20T07:31:20.306Z,40.75
2023-03-20T07:33:53.866Z,40.17
2023-03-20T07:36:27.009Z,40.33
2023-03-20T07:39:00.145Z,43.93
2023-03-20T07:41:33.806Z,40.40
2023-03-20T07:44:14.565Z,39.87
2023-03-20T07:46:57.748Z,38.90
2023-03-20T07:49:30.970Z,40.07
2023-03-20T07:52:04.379Z,39.10
2023-03-20T07:54:37.367Z,38.20
2023-03-20T07:57:10.352Z,37.43
2023-03-20T07:59:43.533Z,38.33
2023-03-20T08:02:19.702Z,36.27
2023-03-20T08:04:52.992Z,34.30
2023-03-20T08:07:25.938Z,33.30
2023-03-20T08:09:58.227Z,34.27
2023-03-20T08:12:31.150Z,33.02
2023-03-20T08:15:06.007Z,34.30
2023-03-20T08:17:38.136Z,34.40
2023-03-20T08:20:11.333Z,32.20
2023-03-20T08:22:45.530Z,34.67
2023-03-20T08:25:18.180Z,33.67
2023-03-20T08:27:51.170Z,32.10
2023-03-20T08:30:23.457Z,32.48
2023-03-20T08:32:56.751Z,32.95
2023-03-20T08:35:33.690Z,34.35
2023-03-20T08:38:07.033Z,31.87
2023-03-20T08:40:41.468Z,33.20
2023-03-20T08:43:13.663Z,31.02
2023-03-20T08:48:16.523Z,28.73
2023-03-20T08:50:48.753Z,31.87
2023-03-20T08:53:22.203Z,33.25
2023-03-20T08:55:55.193Z,30.82
2023-03-20T08:58:27.437Z,28.80
2023-03-20T09:01:03.232Z,28.85
2023-03-20T09:03:36.652Z,27.77
2023-03-20T09:06:09.955Z,27.02
2023-03-20T09:08:42.113Z,26.55
2023-03-20T09:11:14.269Z,26.27
2023-03-20T09:13:46.276Z,22.95
2023-03-20T09:16:18.392Z,22.20
2023-03-20T09:18:51.077Z,21.42
2023-03-20T09:21:23.165Z,21.45
2023-03-20T09:23:55.858Z,23.65
2023-03-20T09:26:28.093Z,23.70
2023-03-20T09:31:30.360Z,21.35
2023-03-20T09:34:02.415Z,21.52
2023-03-20T09:39:05.543Z,19.52
2023-03-20T09:41:49.187Z,22.02
2023-03-20T09:44:37.851Z,21.57
2023-03-20T09:47:20.588Z,22.30
2023-03-20T09:49:58.767Z,21.93
2023-03-20T09:52:32.215Z,22.58
2023-03-20T09:55:08.133Z,19.20
2023-03-20T09:57:41.980Z,18.75
2023-03-20T10:00:18.921Z,19.45
2023-03-20T10:02:52.720Z,17.87
2023-03-20T10:05:28.140Z,15.83
2023-03-20T10:08:01.391Z,14.80
2023-03-20T10:10:39.541Z,15.15
2023-03-20T10:13:19.581Z,12.88
2023-03-20T10:15:54.086Z,14.33
2023-03-20T10:18:28.851Z,13.38
2023-03-20T10:21:03.746Z,13.98
2023-03-20T10:23:37.707Z,11.97
2023-03-20T10:26:12.104Z,14.10
2023-03-20T10:28:47.576Z,14.47
2023-03-20T10:31:28.941Z,13.65
2023-03-20T10:34:05.809Z,14.65
2023-03-20T10:36:54.569Z,14.07
2023-03-20T10:39:39.437Z,13.53
2023-03-20T10:42:18.520Z,13.70
2023-03-20T10:44:51.772Z,12.35
2023-03-20T10:47:26.851Z,11.45
2023-03-20T10:49:59.984Z,11.03
2023-03-20T10:52:33.907Z,11.95
2023-03-20T10:55:08.614Z,11.50
2023-03-20T10:57:46.563Z,11.90
2023-03-20T11:00:21.825Z,11.68
2023-03-20T11:02:54.199Z,11.50
2023-03-20T11:05:29.797Z,12.28
2023-03-20T11:08:07.740Z,12.45
2023-03-20T11:10:41.378Z,12.85
2023-03-20T11:13:21.281Z,14.38
2023-03-20T11:15:57.670Z,14.00
2023-03-20T11:18:32.703Z,13.13
2023-03-20T11:21:05.727Z,12.35
2023-03-20T11:23:38.763Z,12.88
2023-03-20T11:26:20.180Z,12.03
2023-03-20T11:28:54.317Z,11.30
2023-03-20T11:31:32.169Z,12.35
2023-03-20T11:34:11.052Z,12.13
2023-03-20T11:36:50.803Z,11.05
2023-03-20T11:39:29.704Z,11.13
2023-03-20T11:42:03.991Z,11.68
2023-03-20T11:44:37.684Z,10.70
2023-03-20T11:47:20.385Z,11.53
2023-03-20T11:49:58.756Z,11.12
2023-03-20T11:52:35.274Z,10.37
2023-03-20T11:55:25.825Z,11.07
2023-03-20T11:58:03.067Z,10.23
2023-03-20T12:00:42.575Z,11.10
2023-03-20T12:03:43.241Z,10.53
2023-03-20T12:06:21.255Z,9.87
2023-03-20T12:08:59.329Z,10.23
2023-03-20T12:11:46.657Z,9.67
2023-03-20T12:14:30.058Z,10.43
2023-03-20T12:17:22.424Z,8.60
2023-03-20T12:19:59.709Z,9.00
2023-03-20T12:22:40.439Z,8.33
2023-03-20T12:25:23.346Z,9.17
2023-03-20T12:28:04.352Z,9.17
2023-03-20T12:30:53.027Z,8.97
2023-03-20T12:33:40.387Z,8.83
2023-03-20T12:36:18.974Z,9.33
2023-03-20T12:38:52.190Z,9.23
2023-03-20T12:41:30.670Z,8.47
2023-03-20T12:44:22.636Z,8.73
2023-03-20T12:47:08.670Z,9.57
2023-03-20T12:49:52.919Z,8.70
2023-03-20T12:52:38.668Z,9.13
2023-03-20T12:55:27.242Z,8.33
2023-03-20T12:58:24.429Z,8.27
2023-03-20T13:01:05.892Z,8.80
2023-03-20T13:04:01.516Z,8.15
2023-03-20T13:06:44.091Z,7.77
2023-03-20T13:09:45.006Z,7.67
2023-03-20T13:12:31.953Z,8.33
2023-03-20T13:15:21.752Z,8.87
2023-03-20T13:18:03.021Z,8.30
2023-03-20T13:20:40.890Z,7.20
2023-03-20T13:23:23.786Z,8.10
2023-03-20T13:26:17.324Z,7.03
2023-03-20T13:29:00.460Z,6.73
2023-03-20T13:31:57.860Z,8.00
2023-03-20T13:34:54.191Z,9.13
2023-03-20T13:37:36.214Z,7.10
2023-03-20T13:40:20.520Z,7.00
2023-03-20T13:43:01.103Z,7.63
2023-03-20T13:45:41.319Z,8.10
2023-03-20T13:48:27.393Z,8.20
2023-03-20T13:51:09.007Z,8.73
2023-03-20T13:53:54.628Z,7.80
2023-03-20T13:56:39.222Z,7.33
2023-03-20T14:02:13.691Z,8.00
2023-03-20T14:04:47.758Z,8.00
2023-03-20T14:07:36.376Z,9.17
2023-03-20T14:10:42.415Z,9.00
2023-03-20T14:13:19.856Z,9.30
2023-03-20T14:15:57.989Z,9.03
2023-03-20T14:18:32.921Z,8.90
2023-03-20T14:21:13.605Z,8.87
2023-03-20T14:23:51.705Z,8.70
2023-03-20T14:26:29.044Z,9.27
2023-03-20T14:29:21.475Z,9.40
2023-03-20T14:32:04.076Z,9.27
2023-03-20T14:34:50.431Z,10.60
2023-03-20T14:37:39.766Z,10.50
2023-03-20T14:40:21.852Z,10.43
2023-03-20T14:43:01.029Z,12.77
2023-03-20T14:45:44.845Z,10.00
2023-03-20T14:48:32.235Z,9.63
2023-03-20T14:51:30.210Z,9.17
2023-03-20T14:54:27.889Z,9.43
2023-03-20T14:57:20.423Z,10.67
2023-03-20T14:59:56.623Z,11.77
2023-03-20T15:02:39.420Z,8.23
2023-03-20T15:05:29.431Z,8.80
2023-03-20T15:08:08.838Z,8.40
2023-03-20T15:10:52.146Z,9.03
2023-03-20T15:13:26.734Z,9.03
2023-03-20T15:16:04.983Z,8.97
2023-03-20T15:18:43.009Z,8.90
2023-03-20T15:21:21.544Z,8.97
2023-03-20T15:23:54.791Z,8.90
2023-03-20T15:26:30.069Z,9.20
2023-03-20T15:29:06.270Z,9.30
2023-03-20T15:31:42.143Z,8.75
2023-03-20T15:34:21.397Z,8.20
2023-03-20T15:36:57.132Z,8.23
2023-03-20T15:39:42.803Z,9.60
2023-03-20T15:42:18.578Z,9.30
2023-03-20T15:44:53.864Z,9.20
2023-03-20T15:47:28.188Z,9.23
2023-03-20T15:50:03.151Z,9.83
2023-03-20T15:52:42.680Z,10.00
2023-03-20T15:55:20.279Z,8.93
2023-03-20T15:57:57.640Z,9.17
2023-03-20T16:00:35.762Z,9.70
2023-03-20T16:03:17.357Z,9.77
2023-03-20T16:05:53.361Z,9.27
2023-03-20T16:08:28.968Z,10.30
2023-03-20T16:11:04.410Z,10.27
2023-03-20T16:13:42.312Z,10.93
2023-03-20T16:16:19.299Z,11.53
2023-03-20T16:18:53.238Z,11.80
2023-03-20T16:21:29.915Z,10.50
2023-03-20T16:24:07.139Z,11.20
2023-03-20T16:26:42.643Z,11.20
2023-03-20T16:29:17.164Z,10.83
2023-03-20T16:31:54.934Z,11.83
2023-03-20T16:34:34.154Z,12.23
2023-03-20T16:37:26.845Z,11.33
2023-03-20T16:40:18.950Z,12.60
2023-03-20T16:45:35.105Z,13.07
2023-03-20T16:48:32.036Z,11.80
2023-03-20T16:51:17.456Z,12.40
2023-03-20T16:53:52.983Z,11.70
2023-03-20T16:56:29.809Z,11.13
2023-03-20T16:59:10.720Z,13.07
2023-03-20T17:01:48.698Z,11.47
2023-03-20T17:04:25.552Z,12.03
2023-03-20T17:07:02.605Z,12.33
2023-03-20T17:09:36.843Z,11.80
2023-03-20T17:12:19.130Z,12.87
2023-03-20T17:14:52.411Z,12.37
2023-03-20T17:17:27.573Z,12.73
2023-03-20T17:20:01.358Z,11.50
2023-03-20T17:22:35.109Z,12.60
2023-03-20T17:25:12.065Z,11.53
2023-03-20T17:27:45.761Z,12.47
2023-03-20T17:30:22.860Z,12.80
2023-03-20T17:32:56.557Z,11.43
2023-03-20T17:35:29.882Z,11.80
2023-03-20T17:38:03.425Z,12.23
2023-03-20T17:40:37.439Z,12.53
2023-03-20T17:43:14.627Z,13.07
2023-03-20T17:45:49.300Z,12.67
2023-03-20T17:48:23.334Z,12.77
2023-03-20T17:50:56.594Z,13.60
2023-03-20T17:53:31.097Z,13.77
2023-03-20T17:56:05.049Z,13.70
2023-03-20T17:58:39.604Z,13.87
2023-03-20T18:01:13.337Z,14.37
2023-03-20T18:03:47.038Z,13.73
2023-03-20T18:06:27.187Z,13.67
2023-03-20T18:09:02.832Z,13.80
2023-03-20T18:11:36.274Z,14.23
2023-03-20T18:14:12.539Z,15.67
2023-03-20T18:16:46.242Z,15.13
2023-03-20T18:19:26.691Z,14.60
2023-03-20T18:22:01.250Z,14.33
2023-03-20T18:24:35.018Z,15.20
2023-03-20T18:27:09.049Z,15.50
2023-03-20T18:29:42.651Z,15.23
2023-03-20T18:32:16.043Z,15.87
2023-03-20T18:34:49.237Z,15.53
2023-03-20T18:37:22.691Z,15.30
2023-03-20T18:39:58.087Z,14.97
2023-03-20T18:42:31.546Z,15.53
2023-03-20T18:45:05.480Z,15.77
2023-03-20T18:47:38.871Z,16.23
2023-03-20T18:50:27.375Z,16.77
2023-03-20T18:53:02.256Z,16.07
2023-03-20T18:55:35.931Z,17.90
2023-03-20T18:58:17.337Z,16.53
2023-03-20T19:00:50.842Z,18.40
2023-03-20T19:03:26.071Z,18.60
2023-03-20T19:06:01.138Z,18.03
2023-03-20T19:08:37.375Z,18.00
2023-03-20T19:11:15.677Z,17.83
2023-03-20T19:13:51.351Z,18.03
2023-03-20T19:16:26.899Z,17.87
2023-03-20T19:19:02.264Z,17.30
2023-03-20T19:21:36.980Z,19.07
2023-03-20T19:24:11.993Z,18.77
2023-03-20T19:26:46.077Z,19.30
2023-03-20T19:29:19.467Z,20.77
2023-03-20T19:31:52.699Z,19.77
2023-03-20T19:35:10.807Z,19.60
2023-03-20T19:37:21.080Z,19.30
2023-03-20T19:39:54.762Z,20.37
2023-03-20T19:42:52.918Z,20.77
2023-03-20T19:45:21.003Z,20.12
2023-03-20T19:47:55.936Z,20.52
2023-03-20T19:50:33.968Z,20.97
2023-03-20T19:53:11.168Z,20.83
2023-03-20T19:55:45.024Z,20.50
2023-03-20T19:58:17.597Z,21.50
2023-03-20T20:01:06.211Z,23.00
2023-03-20T20:03:44.863Z,21.47
2023-03-20T20:06:22.212Z,23.07
2023-03-20T20:08:57.395Z,24.50
2023-03-20T20:11:30.894Z,25.93
2023-03-20T20:14:08.731Z,25.03
2023-03-20T20:16:43.559Z,24.43
2023-03-20T20:19:17.319Z,26.70
2023-03-20T20:22:19.417Z,27.83
2023-03-20T20:24:44.690Z,28.43
2023-03-20T20:27:19.080Z,30.60
2023-03-20T20:29:54.607Z,32.05
2023-03-20T20:32:29.906Z,34.77
2023-03-20T20:38:33.517Z,36.63
2023-03-20T20:40:51.647Z,39.23
2023-03-20T20:43:50.675Z,40.37
2023-03-20T20:46:19.175Z,37.23
2023-03-20T20:48:53.009Z,38.80
2023-03-20T20:51:27.664Z,40.03
2023-03-20T20:54:00.949Z,38.10
2023-03-20T20:56:34.762Z,38.13
2023-03-20T20:59:08.437Z,37.63
2023-03-20T21:01:42.053Z,37.00
2023-03-20T21:04:16.456Z,37.20
2023-03-20T21:07:08.685Z,35.20
2023-03-20T21:09:43.846Z,36.20
2023-03-20T21:12:33.516Z,35.40
2023-03-20T21:15:11.834Z,34.38
2023-03-20T21:17:59.466Z,35.63
2023-03-20T21:20:34.544Z,36.10
2023-03-20T21:23:07.962Z,32.60
2023-03-20T21:25:43.717Z,35.07
2023-03-20T21:28:20.017Z,33.80
2023-03-20T21:31:20.520Z,32.07
2023-03-20T21:33:46.977Z,34.43
2023-03-20T21:36:20.343Z,35.17
2023-03-20T21:39:07.306Z,34.87
2023-03-20T21:41:42.318Z,32.65
2023-03-20T21:44:24.630Z,33.40
2023-03-20T21:53:40.359Z,35.43
2023-03-20T21:59:24.033Z,32.83
2023-03-20T22:02:01.697Z,32.53
2023-03-20T22:07:58.270Z,32.63
2023-03-20T22:14:13.507Z,33.20
2023-03-20T22:19:56.252Z,36.73
2023-03-20T22:23:03.462Z,38.17
2023-03-20T22:25:38.864Z,38.77
2023-03-20T22:28:22.363Z,40.30
2023-03-20T22:31:26.569Z,40.50
2023-03-20T22:34:25.683Z,38.57
2023-03-20T22:45:12.881Z,37.97
2023-03-20T22:47:46.921Z,38.30
2023-03-20T22:50:20.108Z,37.13
2023-03-20T22:52:55.762Z,36.17
2023-03-20T22:55:30.215Z,37.07
2023-03-20T22:58:07.822Z,37.60
2023-03-20T23:00:42.316Z,36.83
2023-03-20T23:03:29.457Z,36.30
2023-03-20T23:06:09.356Z,35.17
2023-03-20T23:08:50.753Z,35.63
2023-03-20T23:11:28.859Z,34.67
2023-03-20T23:14:03.823Z,36.57
2023-03-20T23:16:39.335Z,35.40
2023-03-20T23:19:12.477Z,35.13
2023-03-20T23:21:45.554Z,34.73
2023-03-20T23:24:18.939Z,34.17
2023-03-20T23:26:52.881Z,34.73
2023-03-20T23:29:26.563Z,34.83
2023-03-20T23:31:59.992Z,33.45
2023-03-20T23:34:33.500Z,33.33
2023-03-20T23:37:07.082Z,33.83
2023-03-20T23:39:41.291Z,33.03
2023-03-20T23:42:29.601Z,33.50
2023-03-20T23:45:17.127Z,33.67
2023-03-20T23:47:53.250Z,35.03
2023-03-20T23:50:32.178Z,34.30
2023-03-20T23:53:20.041Z,33.17
2023-03-20T23:55:57.563Z,33.73
2023-03-20T23:58:31.170Z,33.17
